Time;durP1;ratioP1;P1;durP2;ratioP2;P2;SDS_P1;SDS_P2;PMS_P1;PMS_P2;Temp;Humidity;BMP_temperature;BMP_pressure;BME280_temperature;BME280_humidity;BME280_pressure;Samples;Min_cycle;Max_cycle;Signal;HPM_P1;HPM_P2
2023/06/27 00:01:51;;;;;;;4.63;1.70;;;;;;;14.24;100.00;101268.56;5022254;28;20033;-73
2023/06/27 00:04:19;;;;;;;9.68;2.08;;;;;;;14.27;100.00;101271.72;5022327;28;20057;-73
2023/06/27 00:06:45;;;;;;;2.60;1.40;;;;;;;14.27;100.00;101268.19;5022231;28;20047;-72
2023/06/27 00:09:11;;;;;;;2.55;2.00;;;;;;;14.26;100.00;101261.94;5022460;28;20175;-72
2023/06/27 00:11:37;;;;;;;6.78;1.92;;;;;;;14.27;100.00;101252.78;5022032;28;20123;-72
2023/06/27 00:14:04;;;;;;;3.80;1.80;;;;;;;14.26;100.00;101255.66;5021924;28;20037;-72
2023/06/27 00:16:34;;;;;;;4.15;1.60;;;;;;;14.16;100.00;101244.31;5022064;28;20040;-72
2023/06/27 00:19:04;;;;;;;4.57;1.35;;;;;;;14.26;100.00;101258.38;5006184;28;20041;-72
2023/06/27 00:21:31;;;;;;;2.63;1.58;;;;;;;14.30;100.00;101257.81;5054538;28;20060;-72
2023/06/27 00:23:57;;;;;;;2.35;0.90;;;;;;;14.30;100.00;101249.69;5054814;28;20491;-72
2023/06/27 00:26:23;;;;;;;5.05;2.10;;;;;;;14.32;100.00;101252.22;5021750;28;20045;-71
2023/06/27 00:28:48;;;;;;;3.72;1.75;;;;;;;14.33;100.00;101243.06;5021280;28;20479;-71
2023/06/27 00:31:14;;;;;;;3.83;1.80;;;;;;;14.35;100.00;101240.19;5021689;28;20062;-73
2023/06/27 00:33:40;;;;;;;7.47;2.17;;;;;;;14.38;100.00;101237.09;5021785;28;20060;-72
2023/06/27 00:36:06;;;;;;;6.40;1.90;;;;;;;14.38;100.00;101232.53;5021524;28;20479;-72
2023/06/27 00:38:32;;;;;;;3.70;1.77;;;;;;;14.41;100.00;101225.91;5021477;28;20451;-74
2023/06/27 00:40:58;;;;;;;4.90;1.92;;;;;;;14.40;100.00;101218.81;5038022;28;20035;-72
2023/06/27 00:43:24;;;;;;;5.57;1.80;;;;;;;14.40;100.00;101211.53;5021427;28;20127;-73
2023/06/27 00:45:50;;;;;;;3.13;1.60;;;;;;;14.45;100.00;101221.81;5021103;28;20030;-72
2023/06/27 00:48:15;;;;;;;3.30;1.63;;;;;;;14.49;100.00;101220.38;5021332;28;20471;-73
2023/06/27 00:50:43;;;;;;;3.65;2.00;;;;;;;14.50;100.00;101222.03;5021395;28;20047;-74
2023/06/27 00:53:10;;;;;;;2.80;2.03;;;;;;;14.51;100.00;101221.84;5021205;28;20075;-72
2023/06/27 00:55:39;;;;;;;2.38;1.70;;;;;;;14.51;100.00;101216.44;5004951;28;20101;-73
2023/06/27 00:58:11;;;;;;;5.47;1.73;;;;;;;14.38;100.00;101224.41;5005099;28;20041;-72
2023/06/27 01:00:37;;;;;;;5.65;2.15;;;;;;;14.17;100.00;101216.25;5021454;28;20036;-73
2023/06/27 01:03:03;;;;;;;3.33;1.90;;;;;;;13.96;100.00;101207.00;5020378;28;20045;-73
2023/06/27 01:05:29;;;;;;;3.42;1.95;;;;;;;13.89;100.00;101205.25;5020100;28;20036;-73
2023/06/27 01:08:14;;;;;;;6.80;1.98;;;;;;;13.83;100.00;101204.13;5021126;28;20033;-73
2023/06/27 01:11:17;;;;;;;4.45;1.80;;;;;;;13.79;100.00;101197.44;5037366;28;20033;-72
2023/06/27 01:13:50;;;;;;;4.05;2.00;;;;;;;13.78;100.00;101190.31;5037310;28;20446;-72
2023/06/27 01:16:20;;;;;;;;;;;;;;;13.79;100.00;101181.22;5038033;28;20124;-73
2023/06/27 01:18:47;;;;;;;8.95;2.00;;;;;;;13.81;100.00;101184.53;5070246;28;19959;-72
2023/06/27 01:21:17;;;;;;;4.03;1.60;;;;;;;13.83;100.00;101177.09;5053505;28;20056;-72
2023/06/27 01:23:58;;;;;;;5.60;2.20;;;;;;;13.90;100.00;101163.69;5037053;28;20045;-73
2023/06/27 01:26:23;;;;;;;5.97;2.20;;;;;;;13.89;100.00;101167.41;5004809;28;20122;-74
2023/06/27 01:28:50;;;;;;;7.07;2.05;;;;;;;13.89;100.00;101164.69;5020533;28;20131;-72
2023/06/27 01:31:33;;;;;;;5.65;1.77;;;;;;;13.75;100.00;101140.19;5020492;28;20036;-73
2023/06/27 01:34:10;;;;;;;6.00;2.15;;;;;;;13.92;100.00;101154.34;5020504;28;20040;-72
2023/06/27 01:36:42;;;;;;;7.32;2.20;;;;;;;13.95;100.00;101156.69;5036942;28;20029;-74
2023/06/27 01:39:12;;;;;;;2.72;1.77;;;;;;;13.99;100.00;101152.56;5036901;28;20163;-72
2023/06/27 01:41:40;;;;;;;5.82;2.50;;;;;;;14.07;100.00;101148.91;5020431;28;20116;-72
2023/06/27 01:44:07;;;;;;;6.15;1.77;;;;;;;14.13;100.00;101152.72;5020290;28;20059;-73
2023/06/27 01:46:34;;;;;;;4.03;1.60;;;;;;;14.20;100.00;101148.25;5036768;28;20491;-72
2023/06/27 01:49:00;;;;;;;3.67;1.75;;;;;;;14.28;100.00;101138.13;5020227;28;20036;-74
2023/06/27 01:51:26;;;;;;;7.32;2.88;;;;;;;14.36;100.00;101147.16;5036475;28;20405;-74
2023/06/27 01:53:52;;;;;;;9.57;2.60;;;;;;;14.37;100.00;101138.00;5020152;28;20040;-72
2023/06/27 01:56:18;;;;;;;4.43;2.10;;;;;;;14.30;100.00;101135.25;5020220;28;20041;-72
2023/06/27 01:58:43;;;;;;;9.50;2.20;;;;;;;14.13;100.00;101144.59;5020174;28;20471;-71
2023/06/27 02:01:09;;;;;;;6.25;1.63;;;;;;;13.98;100.00;101137.38;5053180;28;20495;-73
2023/06/27 02:03:35;;;;;;;6.03;2.05;;;;;;;13.89;100.00;101137.66;5020010;28;20037;-71
2023/06/27 02:06:01;;;;;;;3.95;1.75;;;;;;;13.86;100.00;101141.56;5019483;28;20032;-71
2023/06/27 02:08:26;;;;;;;8.63;3.00;;;;;;;13.85;100.00;101131.81;5019879;28;20032;-71
2023/06/27 02:10:52;;;;;;;6.80;2.60;;;;;;;13.90;100.00;101123.97;5020018;28;20037;-70
2023/06/27 02:13:18;;;;;;;3.75;1.52;;;;;;;13.95;100.00;101116.13;5019597;28;20498;-72
2023/06/27 02:15:43;;;;;;;8.13;2.45;;;;;;;14.01;100.00;101114.53;5018927;28;20123;-72
2023/06/27 02:18:09;;;;;;;7.63;2.40;;;;;;;14.06;100.00;101110.22;5019766;28;20036;-71
2023/06/27 02:20:35;;;;;;;8.18;2.85;;;;;;;14.08;100.00;101107.34;5019844;28;20179;-73
2023/06/27 02:23:00;;;;;;;8.90;2.22;;;;;;;14.14;100.00;101101.16;5019745;28;20044;-71
2023/06/27 02:25:26;;;;;;;6.05;2.53;;;;;;;14.17;100.00;101097.25;5019384;28;20102;-72
2023/06/27 02:27:52;;;;;;;5.97;2.28;;;;;;;14.19;100.00;101089.78;5019714;28;20025;-73
2023/06/27 02:30:17;;;;;;;6.25;2.35;;;;;;;14.23;100.00;101074.84;5019667;28;20040;-72
2023/06/27 02:32:43;;;;;;;4.80;2.53;;;;;;;14.25;100.00;101075.47;5019595;28;20040;-72
2023/06/27 02:35:09;;;;;;;5.50;2.75;;;;;;;14.30;100.00;101076.56;5019640;28;20463;-71
2023/06/27 02:37:35;;;;;;;7.22;1.70;;;;;;;14.33;100.00;101071.81;5019387;28;20505;-71
2023/06/27 02:40:01;;;;;;;2.88;1.45;;;;;;;14.37;100.00;101071.25;5019726;28;20124;-72
2023/06/27 02:42:27;;;;;;;6.38;1.67;;;;;;;14.41;100.00;101071.69;5019502;28;20468;-71
2023/06/27 02:44:52;;;;;;;5.10;2.08;;;;;;;14.40;100.00;101061.91;5019421;28;20033;-71
2023/06/27 02:47:19;;;;;;;4.82;2.47;;;;;;;14.47;100.00;101069.06;5019446;28;20460;-72
2023/06/27 02:49:44;;;;;;;4.40;1.95;;;;;;;14.52;100.00;101068.47;5019156;28;20037;-72
2023/06/27 02:52:10;;;;;;;2.97;1.77;;;;;;;14.60;100.00;101057.53;5019406;28;20446;-71
2023/06/27 02:54:36;;;;;;;3.53;2.10;;;;;;;14.64;100.00;101058.00;5003057;28;20045;-71
2023/06/27 02:57:02;;;;;;;4.07;1.85;;;;;;;14.70;100.00;101051.78;5019421;28;20044;-74
2023/06/27 02:59:28;;;;;;;3.10;1.90;;;;;;;14.74;100.00;101053.09;5019473;28;20772;-72
2023/06/27 03:01:53;;;;;;;6.97;2.22;;;;;;;14.78;100.00;101048.94;5019427;28;20101;-71
2023/06/27 03:04:22;;;;;;;1.17;0.90;;;;;;;14.78;100.00;101048.09;5019184;28;20090;-71
2023/06/27 03:06:48;;;;;;;3.33;1.88;;;;;;;14.77;100.00;101049.97;5019587;28;20037;-73
2023/06/27 03:09:16;;;;;;;3.47;1.65;;;;;;;14.68;100.00;101048.44;5003111;28;20044;-73
2023/06/27 03:11:42;;;;;;;1.80;1.45;;;;;;;14.62;100.00;101046.53;5019249;28;20467;-73
2023/06/27 03:14:08;;;;;;;3.05;1.60;;;;;;;14.60;100.00;101048.56;5019175;28;20103;-72
2023/06/27 03:16:33;;;;;;;2.25;1.00;;;;;;;14.55;100.00;101042.91;5019225;28;20067;-71
2023/06/27 03:18:59;;;;;;;1.40;1.05;;;;;;;14.51;100.00;101037.88;5018933;28;20041;-73
2023/06/27 03:21:25;;;;;;;5.18;1.65;;;;;;;14.49;100.00;101039.91;5019082;28;20052;-71
2023/06/27 03:23:50;;;;;;;4.32;2.45;;;;;;;14.49;100.00;101044.50;5019040;28;20036;-71
2023/06/27 03:26:16;;;;;;;3.20;1.60;;;;;;;14.49;100.00;101031.78;5021213;28;20120;-73
2023/06/27 03:28:42;;;;;;;1.73;1.38;;;;;;;14.49;100.00;101039.09;5022877;28;20529;-72
2023/06/27 03:31:07;;;;;;;2.45;1.67;;;;;;;14.48;100.00;101032.00;5022608;28;20040;-72
2023/06/27 03:33:33;;;;;;;3.42;1.58;;;;;;;14.50;100.00;101025.38;5022755;28;20128;-71
2023/06/27 03:35:59;;;;;;;3.13;1.60;;;;;;;14.50;100.00;101036.19;5022785;28;20110;-72
2023/06/27 03:38:24;;;;;;;2.63;1.35;;;;;;;14.50;100.00;101024.50;5022900;28;20368;-72
2023/06/27 03:40:50;;;;;;;2.95;1.40;;;;;;;14.50;100.00;101014.56;5022641;28;20471;-70
2023/06/27 03:43:16;;;;;;;4.32;1.52;;;;;;;14.52;100.00;101017.91;5022877;28;20029;-73
2023/06/27 03:45:42;;;;;;;1.00;0.82;;;;;;;14.53;100.00;101016.06;5022371;28;20032;-71
2023/06/27 03:48:08;;;;;;;2.58;1.30;;;;;;;14.50;100.00;101001.03;5022508;28;20040;-71
2023/06/27 03:50:34;;;;;;;4.90;1.65;;;;;;;14.55;100.00;100999.63;5022199;28;20037;-71
2023/06/27 03:53:02;;;;;;;0.93;0.80;;;;;;;14.56;100.00;101009.44;5022406;28;20056;-71
2023/06/27 03:55:28;;;;;;;3.53;1.58;;;;;;;14.56;100.00;101017.53;5022432;28;20029;-71
2023/06/27 03:57:54;;;;;;;2.50;1.45;;;;;;;14.59;100.00;101015.28;5022319;28;20048;-71
2023/06/27 04:00:20;;;;;;;2.20;1.38;;;;;;;14.62;100.00;101017.56;5021998;28;20399;-70
2023/06/27 04:02:46;;;;;;;4.10;1.65;;;;;;;14.64;100.00;101015.53;5022287;28;20489;-71
2023/06/27 04:05:12;;;;;;;2.00;1.52;;;;;;;14.64;100.00;101015.53;5021906;28;20124;-73
2023/06/27 04:07:40;;;;;;;2.47;1.27;;;;;;;14.66;100.00;101012.59;5022184;28;20212;-73
2023/06/27 04:10:07;;;;;;;3.58;1.67;;;;;;;14.69;100.00;101010.34;5054723;28;20028;-71
2023/06/27 04:12:33;;;;;;;2.67;1.50;;;;;;;14.69;100.00;101006.81;5022084;28;20037;-71
2023/06/27 04:14:59;;;;;;;3.22;1.95;;;;;;;14.72;100.00;101006.44;5022088;28;20091;-71
2023/06/27 04:17:24;;;;;;;2.10;1.40;;;;;;;14.71;100.00;101000.19;5022025;28;20033;-72
2023/06/27 04:19:50;;;;;;;3.67;1.90;;;;;;;14.74;100.00;101007.06;5038452;28;20092;-73
2023/06/27 04:22:16;;;;;;;4.75;2.00;;;;;;;14.78;100.00;101011.03;5021873;28;20025;-70
2023/06/27 04:24:42;;;;;;;4.00;1.83;;;;;;;14.78;100.00;100994.78;5021680;28;20025;-71
2023/06/27 04:27:10;;;;;;;4.28;1.90;;;;;;;14.81;100.00;100993.56;5021837;28;20037;-72
2023/06/27 04:29:37;;;;;;;4.35;1.67;;;;;;;14.82;100.00;100990.66;5071719;28;20041;-72
2023/06/27 04:32:03;;;;;;;5.43;1.83;;;;;;;14.86;100.00;100982.97;5021228;28;20040;-74
2023/06/27 04:34:29;;;;;;;6.40;2.03;;;;;;;14.92;100.00;100984.88;5005334;28;20043;-71
2023/06/27 04:36:54;;;;;;;5.28;2.72;;;;;;;14.96;100.00;100983.47;5020382;28;20037;-72
2023/06/27 04:39:20;;;;;;;6.25;2.85;;;;;;;15.02;100.00;100979.13;5021388;28;20040;-69
2023/06/27 04:41:46;;;;;;;4.88;2.30;;;;;;;15.06;100.00;100988.53;5038123;28;20029;-71
2023/06/27 04:44:13;;;;;;;4.20;2.35;;;;;;;15.10;100.00;100987.91;5021349;28;20040;-72
2023/06/27 04:46:38;;;;;;;1.25;1.13;;;;;;;15.12;100.00;100991.25;5021477;28;20041;-71
2023/06/27 04:49:04;;;;;;;2.25;0.98;;;;;;;15.14;100.00;100986.47;5005001;28;20044;-72
2023/06/27 04:51:30;;;;;;;5.68;2.65;;;;;;;15.16;100.00;100984.41;5020941;28;20044;-70
2023/06/27 04:53:56;;;;;;;2.00;1.33;;;;;;;15.21;100.00;100982.97;5021351;28;20029;-71
2023/06/27 04:56:26;;;;;;;3.30;2.00;;;;;;;15.25;100.00;100986.97;5021193;28;20044;-71
2023/06/27 04:58:52;;;;;;;6.60;2.80;;;;;;;15.27;100.00;100987.56;5021117;28;20388;-71
2023/06/27 05:01:18;;;;;;;4.53;2.70;;;;;;;15.28;100.00;100987.38;5021130;28;20048;-72
2023/06/27 05:03:43;;;;;;;3.10;1.90;;;;;;;15.33;100.00;100986.78;5021025;28;20430;-71
2023/06/27 05:06:09;;;;;;;2.70;1.90;;;;;;;15.34;100.00;100988.44;5020398;28;20045;-71
2023/06/27 05:08:36;;;;;;;5.82;2.65;;;;;;;15.35;100.00;100976.59;5021082;28;20481;-71
2023/06/27 05:11:01;;;;;;;6.30;3.08;;;;;;;15.36;100.00;100984.50;5020995;28;20040;-71
2023/06/27 05:13:27;;;;;;;4.90;2.55;;;;;;;15.34;100.00;100985.72;5004359;28;20122;-70
2023/06/27 05:15:53;;;;;;;10.30;2.70;;;;;;;15.29;100.00;100983.63;5020455;28;20048;-72
2023/06/27 05:18:18;;;;;;;4.97;2.88;;;;;;;15.28;100.00;100984.69;5020764;28;20029;-71
2023/06/27 05:20:45;;;;;;;4.40;2.28;;;;;;;15.28;100.00;100975.72;5037282;28;20067;-72
2023/06/27 05:23:11;;;;;;;8.90;3.75;;;;;;;15.28;100.00;100981.97;5037076;28;20032;-71
2023/06/27 05:25:39;;;;;;;7.50;3.85;;;;;;;15.30;100.00;100981.78;5020355;28;20044;-71
2023/06/27 05:28:04;;;;;;;6.85;4.30;;;;;;;15.32;100.00;100985.09;5053142;28;20493;-70
2023/06/27 05:30:31;;;;;;;5.78;3.03;;;;;;;15.30;100.00;100977.19;5020517;28;20149;-70
2023/06/27 05:33:01;;;;;;;7.88;4.10;;;;;;;15.33;100.00;100982.19;5020510;28;20151;-73
2023/06/27 05:35:28;;;;;;;10.07;4.50;;;;;;;15.33;100.00;100979.50;5021039;28;20128;-72
2023/06/27 05:37:53;;;;;;;12.25;6.22;;;;;;;15.38;100.00;100993.28;5020269;28;20457;-74
2023/06/27 05:40:19;;;;;;;12.20;5.60;;;;;;;15.40;100.00;100993.06;5020462;28;20075;-71
2023/06/27 05:42:45;;;;;;;4.85;2.35;;;;;;;15.43;100.00;100986.38;5020373;28;20036;-75
2023/06/27 05:45:10;;;;;;;21.08;6.25;;;;;;;15.45;100.00;100989.75;5019988;28;20391;-72
2023/06/27 05:47:36;;;;;;;2.22;2.00;;;;;;;15.48;100.00;100989.34;5020251;28;20033;-72
2023/06/27 05:50:02;;;;;;;2.22;1.90;;;;;;;15.52;100.00;100988.72;5020070;28;20090;-73
2023/06/27 05:52:29;;;;;;;1.48;1.27;;;;;;;15.55;100.00;100987.50;5036739;28;20112;-73
2023/06/27 05:54:55;;;;;;;0.30;0.30;;;;;;;15.61;100.00;100989.38;5020348;28;20071;-74
2023/06/27 05:57:22;;;;;;;0.30;0.30;;;;;;;15.66;100.00;100997.75;5020106;28;20033;-75
2023/06/27 05:59:48;;;;;;;0.28;0.28;;;;;;;15.70;100.00;100999.06;5020153;28;20044;-71
2023/06/27 06:02:14;;;;;;;0.47;0.30;;;;;;;15.71;100.00;101000.72;5036332;28;20029;-71
2023/06/27 06:04:40;;;;;;;0.40;0.40;;;;;;;15.72;100.00;100998.84;5019861;28;20041;-71
2023/06/27 06:07:06;;;;;;;1.77;0.90;;;;;;;15.74;100.00;100994.03;5019589;28;20033;-73
2023/06/27 06:09:32;;;;;;;0.40;0.40;;;;;;;15.79;100.00;100992.38;5019980;28;20036;-71
2023/06/27 06:11:58;;;;;;;0.47;0.38;;;;;;;15.83;100.00;100995.53;5019806;28;20110;-73
2023/06/27 06:14:23;;;;;;;0.30;0.30;;;;;;;15.85;100.00;101001.59;5019812;28;20036;-72
2023/06/27 06:16:49;;;;;;;0.38;0.30;;;;;;;15.89;100.00;101002.03;5019973;28;20051;-71
2023/06/27 06:19:15;;;;;;;0.70;0.60;;;;;;;15.96;100.00;100990.16;5019786;28;20463;-73
2023/06/27 06:21:41;;;;;;;0.40;0.40;;;;;;;16.03;100.00;100992.84;5052839;28;20029;-71
2023/06/27 06:24:10;;;;;;;0.30;0.30;;;;;;;16.06;100.00;100989.72;5019621;28;20407;-71
2023/06/27 06:26:36;;;;;;;0.40;0.40;;;;;;;16.15;100.00;101001.25;5019995;28;20037;-72
2023/06/27 06:29:03;;;;;;;0.52;0.52;;;;;;;16.25;100.00;100986.22;5035973;28;20510;-71
2023/06/27 06:31:28;;;;;;;0.30;0.30;;;;;;;16.40;100.00;100987.88;5019813;28;20033;-70
2023/06/27 06:33:55;;;;;;;0.90;0.85;;;;;;;16.59;100.00;100978.06;5019199;28;20545;-73
2023/06/27 06:36:21;;;;;;;0.43;0.40;;;;;;;16.79;100.00;100970.75;5052094;28;20024;-73
2023/06/27 06:38:47;;;;;;;0.30;0.30;;;;;;;16.91;100.00;100962.81;5019560;28;20033;-72
2023/06/27 06:41:13;;;;;;;0.35;0.35;;;;;;;16.90;100.00;100963.84;5019566;28;20036;-72
2023/06/27 06:43:39;;;;;;;0.52;0.40;;;;;;;16.83;100.00;100965.72;5019567;28;20045;-71
2023/06/27 06:46:05;;;;;;;0.20;0.20;;;;;;;16.80;100.00;100966.16;5019199;28;20036;-71
2023/06/27 06:48:30;;;;;;;0.30;0.30;;;;;;;16.82;100.00;100969.50;5019270;28;20041;-71
2023/06/27 06:50:56;;;;;;;0.85;0.85;;;;;;;16.87;100.00;100981.41;5019423;28;20033;-71
2023/06/27 06:53:22;;;;;;;0.32;0.32;;;;;;;16.92;100.00;100980.78;5019371;28;20558;-71
2023/06/27 06:55:48;;;;;;;0.40;0.40;;;;;;;16.92;100.00;100991.63;5019309;28;20132;-74
2023/06/27 06:58:14;;;;;;;0.32;0.32;;;;;;;16.99;100.00;100988.88;5019320;28;20128;-71
2023/06/27 07:00:39;;;;;;;0.30;0.30;;;;;;;17.09;100.00;100983.84;5020435;28;20043;-72
2023/06/27 07:03:14;;;;;;;0.70;0.52;;;;;;;17.21;100.00;100978.59;5023053;28;20128;-72
2023/06/27 07:05:41;;;;;;;0.40;0.40;;;;;;;17.28;100.00;100973.97;5024160;28;20041;-73
2023/06/27 07:08:08;;;;;;;0.30;0.30;;;;;;;17.23;100.00;100971.91;5023492;28;20090;-72
2023/06/27 07:10:33;;;;;;;0.50;0.40;;;;;;;17.12;100.00;100983.44;5023409;28;20036;-72
2023/06/27 07:12:59;;;;;;;0.80;0.40;;;;;;;17.03;100.00;100985.53;5023144;28;20029;-73
2023/06/27 07:15:26;;;;;;;0.55;0.38;;;;;;;17.02;100.00;100975.75;5023171;28;20028;-72
2023/06/27 07:17:52;;;;;;;0.32;0.32;;;;;;;17.05;100.00;100975.31;5022988;28;20044;-73
2023/06/27 07:20:20;;;;;;;0.32;0.32;;;;;;;16.97;100.00;100989.13;5022954;28;20464;-71
2023/06/27 07:22:49;;;;;;;0.30;0.30;;;;;;;16.92;100.00;100976.16;5022883;28;20080;-74
2023/06/27 07:25:15;;;;;;;0.30;0.30;;;;;;;17.01;100.00;100978.66;5022265;28;20032;-72
2023/06/27 07:27:42;;;;;;;0.32;0.32;;;;;;;16.96;100.00;100975.75;5022746;28;20033;-74
2023/06/27 07:30:08;;;;;;;0.57;0.40;;;;;;;16.88;100.00;100980.38;5022810;28;20606;-72
2023/06/27 07:32:34;;;;;;;0.32;0.32;;;;;;;16.79;100.00;100978.91;5022532;28;20401;-71
2023/06/27 07:35:00;;;;;;;0.55;0.45;;;;;;;16.73;100.00;100981.63;5022840;28;20028;-75
2023/06/27 07:37:26;;;;;;;0.20;0.20;;;;;;;16.75;100.00;100974.06;5022657;28;20029;-72
2023/06/27 07:39:51;;;;;;;0.40;0.40;;;;;;;16.81;100.00;100979.53;5022701;28;20491;-72
2023/06/27 07:42:17;;;;;;;0.40;0.40;;;;;;;16.81;100.00;100978.72;5022805;28;20043;-71
2023/06/27 07:44:44;;;;;;;0.30;0.30;;;;;;;16.79;100.00;100973.47;5022450;28;20497;-72
2023/06/27 07:47:09;;;;;;;0.30;0.30;;;;;;;16.86;100.00;100973.50;5022587;28;20033;-73
2023/06/27 07:49:37;;;;;;;0.20;0.20;;;;;;;16.79;100.00;100970.75;5022338;28;20175;-71
2023/06/27 07:52:12;;;;;;;0.30;0.30;;;;;;;16.82;100.00;100980.38;5022735;28;20035;-73
2023/06/27 07:54:38;;;;;;;0.30;0.30;;;;;;;16.71;100.00;100979.94;5038874;28;20036;-70
2023/06/27 07:57:06;;;;;;;0.20;0.20;;;;;;;16.65;100.00;100983.50;5022350;28;20059;-71
2023/06/27 07:59:31;;;;;;;0.30;0.30;;;;;;;16.62;100.00;100980.38;5022044;28;20541;-73
2023/06/27 08:01:57;;;;;;;0.40;0.35;;;;;;;16.59;100.00;100983.50;5022277;28;20037;-72
2023/06/27 08:04:23;;;;;;;0.35;0.30;;;;;;;16.65;100.00;100997.06;5022133;28;20060;-72
2023/06/27 08:06:48;;;;;;;0.40;0.40;;;;;;;16.60;100.00;100993.31;5022138;28;20094;-73
2023/06/27 08:09:14;;;;;;;0.30;0.30;;;;;;;16.60;100.00;100994.16;5022247;28;20033;-71
2023/06/27 08:11:40;;;;;;;0.43;0.40;;;;;;;16.67;100.00;100986.84;5022074;28;20472;-73
2023/06/27 08:14:06;;;;;;;0.75;0.40;;;;;;;16.70;100.00;101004.59;5021578;28;20045;-72
2023/06/27 08:16:33;;;;;;;0.25;0.25;;;;;;;16.64;100.00;101000.00;5021880;28;20613;-71
2023/06/27 08:18:59;;;;;;;0.30;0.30;;;;;;;16.59;100.00;101002.50;5022099;28;20039;-71
2023/06/27 08:21:24;;;;;;;0.30;0.30;;;;;;;16.58;100.00;101004.38;5021844;28;20045;-71
2023/06/27 08:23:50;;;;;;;0.32;0.30;;;;;;;16.56;100.00;101006.47;5021922;28;20475;-73
2023/06/27 08:26:17;;;;;;;0.77;0.43;;;;;;;16.58;100.00;101000.84;5020800;28;20053;-73
2023/06/27 08:28:43;;;;;;;1.08;0.47;;;;;;;16.65;100.00;101007.09;5019560;28;20531;-72
2023/06/27 08:31:13;;;;;;;1.30;0.60;;;;;;;16.69;100.00;100997.47;5019107;28;20037;-74
2023/06/27 08:33:39;;;;;;;0.43;0.43;;;;;;;16.69;100.00;100992.88;5035568;28;20613;-73
2023/06/27 08:36:06;;;;;;;1.58;0.50;;;;;;;16.73;100.00;100995.19;5019539;28;20124;-71
2023/06/27 08:38:31;;;;;;;0.93;0.50;;;;;;;16.92;100.00;100997.91;5019449;28;20068;-72
2023/06/27 08:40:57;;;;;;;1.08;0.40;;;;;;;17.01;100.00;101008.53;5019451;28;20072;-72
2023/06/27 08:43:26;;;;;;;0.30;0.30;;;;;;;17.10;100.00;100997.25;5021066;28;20066;-72
2023/06/27 08:45:54;;;;;;;0.30;0.30;;;;;;;17.43;100.00;100988.13;5021387;28;20541;-73
2023/06/27 08:48:20;;;;;;;0.30;0.30;;;;;;;17.87;100.00;100994.66;5021417;28;20083;-74
2023/06/27 08:50:53;;;;;;;0.30;0.30;;;;;;;17.99;100.00;100994.78;5021332;28;20441;-75
2023/06/27 08:53:22;;;;;;;0.30;0.30;;;;;;;18.04;100.00;100983.25;5005409;28;20384;-74
2023/06/27 08:56:00;;;;;;;0.30;0.30;;;;;;;17.99;100.00;101000.22;5021298;28;20045;-74
2023/06/27 08:58:36;;;;;;;0.30;0.30;;;;;;;17.99;100.00;100992.91;5021340;28;20094;-74
2023/06/27 09:01:02;;;;;;;0.63;0.50;;;;;;;18.08;100.00;100990.75;5021185;28;20036;-73
2023/06/27 09:03:29;;;;;;;0.30;0.30;;;;;;;18.07;100.00;100996.41;5037655;28;20036;-74
2023/06/27 09:05:55;;;;;;;0.82;0.73;;;;;;;18.07;100.00;100996.41;5020592;28;20098;-74
2023/06/27 09:08:21;;;;;;;0.40;0.40;;;;;;;17.93;100.00;100988.31;5021112;28;20106;-73
2023/06/27 09:10:46;;;;;;;0.50;0.35;;;;;;;17.74;100.00;100997.41;5021181;28;20037;-74
2023/06/27 09:13:12;;;;;;;0.52;0.40;;;;;;;17.76;100.00;101003.47;5020943;28;20033;-73
2023/06/27 09:15:38;;;;;;;0.30;0.30;;;;;;;17.92;100.00;100994.00;5020838;28;20090;-73
2023/06/27 09:18:04;;;;;;;0.30;0.30;;;;;;;18.31;100.00;100992.91;5020938;28;20040;-73
2023/06/27 09:20:30;;;;;;;0.32;0.32;;;;;;;18.80;100.00;100983.06;5020818;28;20041;-76
2023/06/27 09:22:57;;;;;;;0.30;0.30;;;;;;;19.48;100.00;100978.53;5020335;28;20075;-73
2023/06/27 09:25:24;;;;;;;0.30;0.30;;;;;;;19.71;100.00;100986.84;5020617;28;20021;-74
2023/06/27 09:27:50;;;;;;;0.32;0.32;;;;;;;19.45;100.00;100970.78;5020629;28;20468;-74
2023/06/27 09:30:16;;;;;;;0.30;0.30;;;;;;;19.19;100.00;100980.97;5020679;28;20037;-70
2023/06/27 09:32:56;;;;;;;0.75;0.43;;;;;;;18.76;100.00;100972.81;5019966;28;20040;-73
2023/06/27 09:35:23;;;;;;;0.43;0.40;;;;;;;18.31;100.00;100984.72;5020362;28;20032;-74
2023/06/27 09:37:52;;;;;;;0.55;0.40;;;;;;;18.00;100.00;100977.41;5020441;28;20037;-72
2023/06/27 09:40:24;;;;;;;0.80;0.70;;;;;;;17.70;100.00;100977.13;5036168;28;20460;-73
2023/06/27 09:42:55;;;;;;;1.05;0.55;;;;;;;17.55;100.00;100980.16;5036960;28;20039;-70
2023/06/27 09:45:23;;;;;;;1.27;1.15;;;;;;;17.51;100.00;100978.91;5020012;28;20506;-78
2023/06/27 09:47:52;;;;;;;0.88;0.70;;;;;;;17.69;100.00;100965.41;5020022;28;20033;-76
2023/06/27 09:50:29;;;;;;;0.95;0.63;;;;;;;17.73;100.00;100966.66;5020159;28;20029;-78
2023/06/27 09:52:57;;;;;;;1.02;0.77;;;;;;;17.68;100.00;100973.81;5053133;28;20025;-76
2023/06/27 09:55:25;;;;;;;0.40;0.40;;;;;;;17.61;100.00;100965.69;5052728;28;20033;-76
2023/06/27 09:57:52;;;;;;;1.15;0.68;;;;;;;17.67;100.00;100958.53;5020030;28;20037;-75
2023/06/27 10:00:22;;;;;;;0.98;0.68;;;;;;;17.53;100.00;100961.31;5035953;28;20387;-76
2023/06/27 10:02:49;;;;;;;1.45;0.60;;;;;;;17.54;100.00;100968.44;5020171;28;20037;-76
2023/06/27 10:05:16;;;;;;;1.08;0.95;;;;;;;17.55;100.00;100967.38;5003066;28;20127;-77
2023/06/27 10:07:43;;;;;;;1.50;0.85;;;;;;;17.73;100.00;100958.50;5020077;28;20036;-76
2023/06/27 10:10:09;;;;;;;1.02;0.80;;;;;;;17.97;100.00;100956.09;5052474;28;20123;-76
2023/06/27 10:12:35;;;;;;;0.90;0.68;;;;;;;18.29;100.00;100958.78;5052579;28;20045;-75
2023/06/27 10:15:01;;;;;;;0.90;0.60;;;;;;;18.52;100.00;100948.09;5035657;28;20123;-76
2023/06/27 10:17:28;;;;;;;1.00;0.70;;;;;;;18.67;100.00;100950.47;5019581;28;20033;-76
2023/06/27 10:19:54;;;;;;;3.88;0.85;;;;;;;18.72;100.00;100958.78;5019682;28;20495;-76
2023/06/27 10:22:21;;;;;;;0.85;0.63;;;;;;;18.74;100.00;100961.31;5035841;28;20121;-77
2023/06/27 10:24:49;;;;;;;0.73;0.60;;;;;;;18.83;100.00;100954.53;5035484;28;20029;-76
2023/06/27 10:27:21;;;;;;;1.27;1.02;;;;;;;18.88;100.00;100947.34;5036101;28;20033;-75
2023/06/27 10:29:47;;;;;;;1.58;1.30;;;;;;;18.87;100.00;100964.75;5035699;28;20028;-76
2023/06/27 10:32:18;;;;;;;0.70;0.63;;;;;;;18.84;100.00;100951.59;5019643;28;20565;-76
2023/06/27 10:34:44;;;;;;;4.88;1.60;;;;;;;19.12;100.00;100947.50;5051845;28;20033;-75
2023/06/27 10:37:30;;;;;;;1.25;0.82;;;;;;;19.47;100.00;100961.31;5018912;28;20095;-76
2023/06/27 10:40:00;;;;;;;2.15;0.70;;;;;;;19.96;100.00;100966.75;5051968;28;20028;-75
2023/06/27 10:42:31;;;;;;;1.83;1.10;;;;;;;20.27;100.00;100959.34;5019089;28;20044;-81
2023/06/27 10:45:07;;;;;;;2.88;1.52;;;;;;;20.38;100.00;100961.28;5035355;28;20045;-75
2023/06/27 10:47:47;;;;;;;3.70;1.30;;;;;;;20.36;100.00;100963.41;5019217;28;20132;-77
2023/06/27 10:50:15;;;;;;;2.47;1.35;;;;;;;20.32;100.00;100956.72;5035915;28;20471;-77
2023/06/27 10:53:12;;;;;;;3.88;1.45;;;;;;;20.34;100.00;100954.59;5051849;28;20426;-76
2023/06/27 10:55:39;;;;;;;2.30;1.42;;;;;;;20.47;100.00;100965.31;5035903;28;20037;-78
2023/06/27 10:58:10;;;;;;;3.08;1.50;;;;;;;20.25;100.00;100970.50;5019242;28;20037;-76
2023/06/27 11:00:40;;;;;;;3.33;1.63;;;;;;;20.13;100.00;100973.19;5051983;28;20025;-77
2023/06/27 11:03:08;;;;;;;2.47;1.38;;;;;;;19.91;100.00;100970.19;5019169;28;20041;-76
2023/06/27 11:05:46;;;;;;;4.05;1.65;;;;;;;19.79;100.00;100974.75;5018821;28;20036;-77
2023/06/27 11:08:17;;;;;;;3.13;1.38;;;;;;;20.02;100.00;100973.19;5035156;28;20438;-76
2023/06/27 11:10:59;;;;;;;3.75;1.63;;;;;;;20.12;100.00;100976.19;5051898;28;20044;-76
2023/06/27 11:13:36;;;;;;;4.95;1.95;;;;;;;20.09;100.00;100982.09;5035267;28;20560;-76
2023/06/27 11:16:02;;;;;;;5.28;1.40;;;;;;;20.05;100.00;100978.16;5035450;28;20037;-77
2023/06/27 11:18:30;;;;;;;5.97;1.92;;;;;;;20.04;100.00;100982.81;5051913;28;20028;-76